createdAt,value
2019-01-28T00:00:33.312Z,-5.4
2019-01-28T00:01:23.396Z,-5.4
2019-01-28T00:02:13.691Z,-5.4
2019-01-28T00:03:03.199Z,-5.5
2019-01-28T00:03:53.816Z,-5.4
2019-01-28T00:04:43.589Z,-5.4
2019-01-28T00:05:33.425Z,-5.4
2019-01-28T00:06:23.990Z,-5.5
2019-01-28T00:07:13.778Z,-5.4
2019-01-28T00:08:03.601Z,-5.4
2019-01-28T00:08:54.236Z,-5.4
2019-01-28T00:09:43.983Z,-5.4
2019-01-28T00:10:33.996Z,-5.4
2019-01-28T00:11:24.325Z,-5.4
2019-01-28T00:12:15.725Z,-5.4
2019-01-28T00:13:03.885Z,-5.4
2019-01-28T00:13:54.513Z,-5.4
2019-01-28T00:14:44.573Z,-5.4
2019-01-28T00:15:34.118Z,-5.4
2019-01-28T00:16:24.670Z,-5.4
2019-01-28T00:17:14.463Z,-5.4
2019-01-28T00:18:04.793Z,-5.4
2019-01-28T00:18:54.850Z,-5.4
2019-01-28T00:19:44.627Z,-5.4
2019-01-28T00:20:34.957Z,-5.4
2019-01-28T00:21:24.740Z,-5.4
2019-01-28T00:22:15.075Z,-5.4
2019-01-28T00:23:04.912Z,-5.4
2019-01-28T00:23:54.915Z,-5.5
2019-01-28T00:24:44.692Z,-5.5
2019-01-28T00:25:34.212Z,-5.5
2019-01-28T00:26:25.357Z,-5.5
2019-01-28T00:27:15.150Z,-5.5
2019-01-28T00:28:04.929Z,-5.4
2019-01-28T00:28:55.260Z,-5.4
2019-01-28T00:29:45.627Z,-5.4
2019-01-28T00:30:35.362Z,-5.4
2019-01-28T00:31:25.149Z,-5.4
2019-01-28T00:32:15.754Z,-5.4
2019-01-28T00:33:05.552Z,-5.4
2019-01-28T00:33:55.054Z,-5.4
2019-01-28T00:34:45.924Z,-5.5
2019-01-28T00:35:35.438Z,-5.4
2019-01-28T00:36:26.036Z,-5.5
2019-01-28T00:37:16.112Z,-5.5
2019-01-28T00:38:06.167Z,-5.5
2019-01-28T00:38:56.216Z,-5.5
2019-01-28T00:39:45.995Z,-5.5
2019-01-28T00:40:35.776Z,-5.5
2019-01-28T00:41:26.109Z,-5.4
2019-01-28T00:42:16.176Z,-5.4
2019-01-28T00:43:06.221Z,-5.4
2019-01-28T00:43:56.643Z,-5.4
2019-01-28T00:44:46.333Z,-5.4
2019-01-28T00:45:36.674Z,-5.4
2019-01-28T00:46:26.451Z,-5.4
2019-01-28T00:47:16.506Z,-5.4
2019-01-28T00:48:06.298Z,-5.4
2019-01-28T00:48:56.894Z,-5.4
2019-01-28T00:49:46.734Z,-5.4
2019-01-28T00:50:37.018Z,-5.4
2019-01-28T00:51:26.782Z,-5.4
2019-01-28T00:52:16.861Z,-5.4
2019-01-28T00:53:07.186Z,-5.4
2019-01-28T00:53:57.251Z,-5.4
2019-01-28T00:54:47.293Z,-5.4
2019-01-28T00:55:37.346Z,-5.4
2019-01-28T00:56:27.421Z,-5.4
2019-01-28T00:57:17.207Z,-5.4
2019-01-28T00:58:07.245Z,-5.4
2019-01-28T00:58:57.595Z,-5.4
2019-01-28T00:59:47.643Z,-5.4
2019-01-28T01:00:37.695Z,-5.4
2019-01-28T01:01:26.993Z,-5.4
2019-01-28T01:02:17.537Z,-5.4
2019-01-28T01:03:07.600Z,-5.4
2019-01-28T01:03:57.931Z,-5.5
2019-01-28T01:04:48.010Z,-5.5
2019-01-28T01:05:37.487Z,-5.5
2019-01-28T01:06:27.544Z,-5.5
2019-01-28T01:07:17.897Z,-5.6
2019-01-28T01:08:08.210Z,-5.5
2019-01-28T01:08:58.270Z,-5.6
2019-01-28T01:09:48.119Z,-5.5
2019-01-28T01:10:37.834Z,-5.5
2019-01-28T01:11:28.162Z,-5.5
2019-01-28T01:12:18.496Z,-5.5
2019-01-28T01:13:08.547Z,-5.4
2019-01-28T01:13:58.645Z,-5.4
2019-01-28T01:14:48.106Z,-5.4
2019-01-28T01:15:38.191Z,-5.4
2019-01-28T01:16:28.779Z,-5.4
2019-01-28T01:17:18.571Z,-5.4
2019-01-28T01:18:08.611Z,-5.4
2019-01-28T01:18:58.951Z,-5.4
2019-01-28T01:19:49.022Z,-5.4
2019-01-28T01:20:38.508Z,-5.4
2019-01-28T01:21:29.116Z,-5.4
2019-01-28T01:22:19.191Z,-5.4
2019-01-28T01:23:08.969Z,-5.4
2019-01-28T01:23:59.014Z,-5.4
2019-01-28T01:24:48.806Z,-5.4
2019-01-28T01:25:39.127Z,-5.4
2019-01-28T01:26:29.191Z,-5.4
2019-01-28T01:27:19.529Z,-5.4
2019-01-28T01:28:09.306Z,-5.4
2019-01-28T01:28:59.626Z,-5.4
2019-01-28T01:29:49.418Z,-5.4
2019-01-28T01:30:39.749Z,-5.4
2019-01-28T01:31:29.808Z,-5.5
2019-01-28T01:32:19.593Z,-5.4
2019-01-28T01:33:09.918Z,-5.4
2019-01-28T01:33:59.998Z,-5.4
2019-01-28T01:34:49.765Z,-5.4
2019-01-28T01:35:39.815Z,-5.4
2019-01-28T01:36:30.143Z,-5.4
2019-01-28T01:37:19.920Z,-5.4
2019-01-28T01:38:10.262Z,-5.5
2019-01-28T01:39:00.046Z,-5.5
2019-01-28T01:39:50.368Z,-5.5
2019-01-28T01:40:40.167Z,-5.5
2019-01-28T01:41:30.252Z,-5.5
2019-01-28T01:42:20.263Z,-5.5
2019-01-28T01:43:10.610Z,-5.5
2019-01-28T01:44:00.390Z,-5.5
2019-01-28T01:44:50.716Z,-5.5
2019-01-28T01:45:40.497Z,-5.5
2019-01-28T01:46:30.832Z,-5.5
2019-01-28T01:47:20.619Z,-5.5
2019-01-28T01:48:10.684Z,-5.5
2019-01-28T01:49:00.992Z,-5.5
2019-01-28T01:49:51.067Z,-5.5
2019-01-28T01:50:40.852Z,-5.5
2019-01-28T01:51:30.914Z,-5.6
2019-01-28T01:52:20.709Z,-5.6
2019-01-28T01:53:11.014Z,-5.5
2019-01-28T01:54:01.390Z,-5.5
2019-01-28T01:54:51.477Z,-5.5
2019-01-28T01:55:40.904Z,-5.5
2019-01-28T01:56:31.301Z,-5.5
2019-01-28T01:57:21.358Z,-5.5
2019-01-28T01:58:13.500Z,-5.5
2019-01-28T01:59:01.419Z,-5.5
2019-01-28T01:59:51.474Z,-5.4
2019-01-28T02:00:41.531Z,-5.4
2019-01-28T02:01:31.868Z,-5.4
2019-01-28T02:02:21.928Z,-5.4
2019-01-28T02:03:11.434Z,-5.4
2019-01-28T02:04:01.776Z,-5.4
2019-01-28T02:04:51.818Z,-5.4
2019-01-28T02:05:41.873Z,-5.3
2019-01-28T02:06:32.198Z,-5.3
2019-01-28T02:07:21.976Z,-5.3
2019-01-28T02:08:12.041Z,-5.3
2019-01-28T02:09:02.376Z,-5.3
2019-01-28T02:09:52.163Z,-5.3
2019-01-28T02:10:42.493Z,-5.2
2019-01-28T02:11:32.546Z,-5.2
2019-01-28T02:12:22.383Z,-5.2
2019-01-28T02:13:12.663Z,-5.2
2019-01-28T02:14:02.439Z,-5.1
2019-01-28T02:14:52.554Z,-5.1
2019-01-28T02:15:42.293Z,-5.1
2019-01-28T02:16:32.344Z,-5.1
2019-01-28T02:17:22.385Z,-5.1
2019-01-28T02:18:12.997Z,-5.1
2019-01-28T02:19:03.075Z,-5.1
2019-01-28T02:19:52.843Z,-5.1
2019-01-28T02:20:43.185Z,-5
2019-01-28T02:21:32.670Z,-5
2019-01-28T02:22:23.282Z,-4.9
2019-01-28T02:23:13.345Z,-4.9
2019-01-28T02:24:03.405Z,-4.9
2019-01-28T02:24:53.454Z,-4.9
2019-01-28T02:25:43.522Z,-4.9
2019-01-28T02:26:33.572Z,-4.9
2019-01-28T02:27:23.622Z,-4.9
2019-01-28T02:28:13.414Z,-4.9
2019-01-28T02:29:03.194Z,-4.8
2019-01-28T02:29:53.808Z,-4.8
2019-01-28T02:30:43.863Z,-4.8
2019-01-28T02:31:33.931Z,-4.8
2019-01-28T02:32:24.095Z,-4.8
2019-01-28T02:33:14.027Z,-4.8
2019-01-28T02:34:03.819Z,-4.8
2019-01-28T02:34:54.203Z,-4.7
2019-01-28T02:35:44.207Z,-4.7
2019-01-28T02:36:33.979Z,-4.7
2019-01-28T02:37:24.385Z,-4.7
2019-01-28T02:38:14.384Z,-4.7
2019-01-28T02:39:04.451Z,-4.6
2019-01-28T02:39:54.224Z,-4.6
2019-01-28T02:40:44.598Z,-4.6
2019-01-28T02:41:34.334Z,-4.6
2019-01-28T02:42:24.373Z,-4.6
2019-01-28T02:43:14.715Z,-4.6
2019-01-28T02:44:04.521Z,-4.6
2019-01-28T02:44:54.852Z,-4.6
2019-01-28T02:45:44.906Z,-4.6
2019-01-28T02:46:34.421Z,-4.6
2019-01-28T02:47:25.016Z,-4.6
2019-01-28T02:48:14.798Z,-4.6
2019-01-28T02:49:04.845Z,-4.6
2019-01-28T02:49:55.201Z,-4.6
2019-01-28T02:50:44.965Z,-4.5
2019-01-28T02:51:34.738Z,-4.6
2019-01-28T02:52:25.063Z,-4.5
2019-01-28T02:53:15.148Z,-4.6
2019-01-28T02:54:04.914Z,-4.6
2019-01-28T02:54:55.226Z,-4.6
2019-01-28T02:55:45.399Z,-4.5
2019-01-28T02:56:35.641Z,-4.5
2019-01-28T02:57:25.426Z,-4.5
2019-01-28T02:58:15.185Z,-4.5
2019-01-28T02:59:05.533Z,-4.5
2019-01-28T02:59:55.873Z,-4.5
2019-01-28T03:00:45.646Z,-4.5
2019-01-28T03:01:35.429Z,-4.5
2019-01-28T03:02:25.478Z,-4.5
2019-01-28T03:03:16.085Z,-4.5
2019-01-28T03:04:05.920Z,-4.5
2019-01-28T03:04:56.221Z,-4.5
2019-01-28T03:08:28.685Z,-4.5
2019-01-28T03:09:19.083Z,-4.5
2019-01-28T03:10:09.085Z,-4.5
2019-01-28T03:10:59.122Z,-4.5
2019-01-28T03:11:48.668Z,-4.6
2019-01-28T03:12:38.702Z,-4.5
2019-01-28T03:13:29.037Z,-4.6
2019-01-28T03:14:19.087Z,-4.5
2019-01-28T03:15:09.410Z,-4.5
2019-01-28T03:15:59.467Z,-4.6
2019-01-28T03:16:49.557Z,-4.5
2019-01-28T03:17:39.348Z,-4.5
2019-01-28T03:18:29.660Z,-4.5
2019-01-28T03:19:19.694Z,-4.6
2019-01-28T03:20:09.189Z,-4.6
2019-01-28T03:20:59.872Z,-4.6
2019-01-28T03:21:49.868Z,-4.5
2019-01-28T03:22:39.924Z,-4.5
2019-01-28T03:23:29.974Z,-4.5
2019-01-28T03:24:20.052Z,-4.4
2019-01-28T03:25:10.089Z,-4.5
2019-01-28T03:25:59.891Z,-4.4
2019-01-28T03:26:49.932Z,-4.4
2019-01-28T03:27:42.363Z,-4.4
2019-01-28T03:28:30.316Z,-4.4
2019-01-28T03:29:20.426Z,-4.4
2019-01-28T03:30:10.187Z,-4.4
2019-01-28T03:31:00.652Z,-4.4
2019-01-28T03:31:50.079Z,-4.4
2019-01-28T03:32:40.404Z,-4.4
2019-01-28T03:33:30.439Z,-4.4
2019-01-28T03:34:20.433Z,-4.4
2019-01-28T03:35:10.765Z,-4.4
2019-01-28T03:36:00.844Z,-4.4
2019-01-28T03:36:50.871Z,-4.4
2019-01-28T03:37:40.935Z,-4.4
2019-01-28T03:38:30.725Z,-4.4
2019-01-28T03:39:20.811Z,-4.4
2019-01-28T03:40:11.123Z,-4.4
2019-01-28T03:41:01.219Z,-4.4
2019-01-28T03:41:51.225Z,-4.3
2019-01-28T03:42:41.300Z,-4.3
2019-01-28T03:43:31.370Z,-4.3
2019-01-28T03:44:21.124Z,-4.3
2019-01-28T03:45:11.182Z,-4.3
2019-01-28T03:46:01.508Z,-4.3
2019-01-28T03:46:51.597Z,-4.3
2019-01-28T03:47:41.610Z,-4.3
2019-01-28T03:48:31.667Z,-4.3
2019-01-28T03:49:21.174Z,-4.3
2019-01-28T03:50:11.839Z,-4.3
2019-01-28T03:51:01.855Z,-4.3
2019-01-28T03:51:51.933Z,-4.3
2019-01-28T03:52:41.728Z,-4.3
2019-01-28T03:53:31.755Z,-4.3
2019-01-28T03:54:22.066Z,-4.3
2019-01-28T03:55:11.874Z,-4.3
2019-01-28T03:56:02.172Z,-4.3
2019-01-28T03:56:52.233Z,-4.3
2019-01-28T03:57:42.316Z,-4.3
2019-01-28T03:58:32.356Z,-4.3
2019-01-28T03:59:22.414Z,-4.3
2019-01-28T04:00:12.454Z,-4.3
2019-01-28T04:01:02.511Z,-4.3
2019-01-28T04:01:52.589Z,-4.3
2019-01-28T04:02:42.686Z,-4.3
2019-01-28T04:03:32.454Z,-4.3
2019-01-28T04:04:22.199Z,-4.3
2019-01-28T04:05:12.903Z,-4.3
2019-01-28T04:06:02.583Z,-4.3
2019-01-28T04:06:52.658Z,-4.3
2019-01-28T04:07:42.689Z,-4.3
2019-01-28T04:08:33.027Z,-4.3
2019-01-28T04:09:22.803Z,-4.3
2019-01-28T04:10:13.162Z,-4.3
2019-01-28T04:11:02.955Z,-4.3
2019-01-28T04:11:53.274Z,-4.3
2019-01-28T04:12:43.318Z,-4.3
2019-01-28T04:13:33.423Z,-4.3
2019-01-28T04:14:23.430Z,-4.3
2019-01-28T04:15:13.213Z,-4.3
2019-01-28T04:16:03.121Z,-4.3
2019-01-28T04:16:53.640Z,-4.3
2019-01-28T04:17:43.658Z,-4.3
2019-01-28T04:18:33.448Z,-4.3
2019-01-28T04:19:23.775Z,-4.3
2019-01-28T04:20:13.868Z,-4.3
2019-01-28T04:21:03.888Z,-4.3
2019-01-28T04:21:53.381Z,-4.3
2019-01-28T04:22:43.454Z,-4.3
2019-01-28T04:23:34.045Z,-4.3
2019-01-28T04:24:23.825Z,-4.3
2019-01-28T04:25:14.353Z,-4.3
2019-01-28T04:26:04.217Z,-4.3
2019-01-28T04:26:54.271Z,-4.3
2019-01-28T04:27:44.077Z,-4.3
2019-01-28T04:28:34.120Z,-4.3
2019-01-28T04:29:24.453Z,-4.3
2019-01-28T04:30:14.256Z,-4.3
2019-01-28T04:31:04.560Z,-4.3
2019-01-28T04:31:54.626Z,-4.3
2019-01-28T04:32:44.711Z,-4.3
2019-01-28T04:33:34.717Z,-4.3
2019-01-28T04:34:24.818Z,-4.3
2019-01-28T04:35:14.857Z,-4.3
2019-01-28T04:36:04.979Z,-4.3
2019-01-28T04:36:54.400Z,-4.3
2019-01-28T04:37:45.035Z,-4.3
2019-01-28T04:38:34.792Z,-4.3
2019-01-28T04:39:25.141Z,-4.3
2019-01-28T04:40:15.177Z,-4.3
2019-01-28T04:41:05.251Z,-4.3
2019-01-28T04:41:55.331Z,-4.3
2019-01-28T04:42:45.088Z,-4.3
2019-01-28T04:43:35.127Z,-4.3
2019-01-28T04:44:25.526Z,-4.3
2019-01-28T04:45:15.534Z,-4.3
2019-01-28T04:46:05.634Z,-4.3
2019-01-28T04:46:55.374Z,-4.3
2019-01-28T04:47:45.844Z,-4.3
2019-01-28T04:48:35.827Z,-4.3
2019-01-28T04:49:25.877Z,-4.3
2019-01-28T04:50:15.854Z,-4.3
2019-01-28T04:51:05.928Z,-4.3
2019-01-28T04:51:55.971Z,-4.3
2019-01-28T04:52:46.025Z,-4.3
2019-01-28T04:53:36.078Z,-4.3
2019-01-28T04:54:26.158Z,-4.3
2019-01-28T04:55:16.195Z,-4.3
2019-01-28T04:56:05.969Z,-4.3
2019-01-28T04:56:56.330Z,-4.3
2019-01-28T04:57:46.437Z,-4.3
2019-01-28T04:58:36.496Z,-4.3
2019-01-28T04:59:26.530Z,-4.3
2019-01-28T05:00:16.750Z,-4.3
2019-01-28T05:01:06.582Z,-4.3
2019-01-28T05:01:56.660Z,-4.3
2019-01-28T05:02:46.437Z,-4.3
2019-01-28T05:03:36.485Z,-4.3
2019-01-28T05:04:26.570Z,-4.3
2019-01-28T05:05:16.910Z,-4.3
2019-01-28T05:06:06.664Z,-4.3
2019-01-28T05:06:56.437Z,-4.3
2019-01-28T05:07:47.116Z,-4.3
2019-01-28T05:08:36.840Z,-4.3
2019-01-28T05:09:27.225Z,-4.3
2019-01-28T05:10:17.092Z,-4.3
2019-01-28T05:11:06.989Z,-4.3
2019-01-28T05:11:57.365Z,-4.3
2019-01-28T05:12:47.382Z,-4.3
2019-01-28T05:13:37.448Z,-4.3
2019-01-28T05:14:26.696Z,-4.3
2019-01-28T05:15:17.582Z,-4.3
2019-01-28T05:16:07.617Z,-4.3
2019-01-28T05:16:57.690Z,-4.3
2019-01-28T05:17:47.194Z,-4.3
2019-01-28T05:18:37.786Z,-4.3
2019-01-28T05:19:27.857Z,-4.3
2019-01-28T05:20:17.935Z,-4.3
2019-01-28T05:21:07.951Z,-4.3
2019-01-28T05:21:58.002Z,-4.3
2019-01-28T05:22:47.304Z,-4.3
2019-01-28T05:23:38.115Z,-4.3
2019-01-28T05:24:28.194Z,-4.3
2019-01-28T05:25:17.507Z,-4.3
2019-01-28T05:26:08.311Z,-4.3
2019-01-28T05:26:57.604Z,-4.3
2019-01-28T05:27:47.952Z,-4.3
2019-01-28T05:28:37.699Z,-4.3
2019-01-28T05:29:27.478Z,-4.3
2019-01-28T05:30:17.868Z,-4.3
2019-01-28T05:31:07.871Z,-4.3
2019-01-28T05:31:58.253Z,-4.3
2019-01-28T05:32:48.251Z,-4.3
2019-01-28T05:33:38.320Z,-4.3
2019-01-28T05:34:28.378Z,-4.3
2019-01-28T05:35:18.460Z,-4.3
2019-01-28T05:36:08.406Z,-4.3
2019-01-28T05:36:59.020Z,-4.3
2019-01-28T05:37:49.088Z,-4.3
2019-01-28T05:38:38.891Z,-4.3
2019-01-28T05:39:29.201Z,-4.3
2019-01-28T05:40:18.982Z,-4.3
2019-01-28T05:41:09.033Z,-4.3
2019-01-28T05:41:59.103Z,-4.3
2019-01-28T05:42:49.442Z,-4.2
2019-01-28T05:43:39.185Z,-4.3
2019-01-28T05:44:28.978Z,-4.3
2019-01-28T05:45:19.310Z,-4.3
2019-01-28T05:46:09.630Z,-4.2
2019-01-28T05:46:59.470Z,-4.3
2019-01-28T05:47:49.779Z,-4.3
2019-01-28T05:48:39.818Z,-4.3
2019-01-28T05:49:29.606Z,-4.3
2019-01-28T05:50:19.638Z,-4.2
2019-01-28T05:51:09.696Z,-4.2
2019-01-28T05:51:59.770Z,-4.2
2019-01-28T05:52:50.098Z,-4.1
2019-01-28T05:53:39.865Z,-4.2
2019-01-28T05:54:30.206Z,-4.2
2019-01-28T05:55:20.279Z,-4.1
2019-01-28T05:56:10.044Z,-4.2
2019-01-28T05:57:00.369Z,-4.2
2019-01-28T05:57:50.479Z,-4.1
2019-01-28T05:58:40.226Z,-4.1
2019-01-28T05:59:30.541Z,-4.1
2019-01-28T06:00:20.319Z,-4.1
2019-01-28T06:01:10.379Z,-4.1
2019-01-28T06:02:00.706Z,-4.1
2019-01-28T06:02:50.817Z,-4.1
2019-01-28T06:03:40.830Z,-4.1
2019-01-28T06:04:30.611Z,-4.1
2019-01-28T06:06:28.254Z,-4.1
2019-01-28T06:07:18.793Z,-4.1
2019-01-28T06:08:08.898Z,-4.1
2019-01-28T06:08:58.964Z,-4.1
2019-01-28T06:09:48.765Z,-4.1
2019-01-28T06:10:53.721Z,-4
2019-01-28T06:11:28.588Z,-4
2019-01-28T06:12:24.366Z,-4
2019-01-28T06:13:14.606Z,-4
2019-01-28T06:14:03.934Z,-4
2019-01-28T06:14:54.529Z,-4
2019-01-28T06:15:44.585Z,-4
2019-01-28T06:16:34.076Z,-3.9
2019-01-28T06:17:24.681Z,-3.9
2019-01-28T06:18:14.733Z,-3.9
2019-01-28T06:19:19.185Z,-3.9
2019-01-28T06:19:55.055Z,-3.8
2019-01-28T06:20:44.873Z,-3.8
2019-01-28T06:21:34.415Z,-3.8
2019-01-28T06:22:24.755Z,-3.8
2019-01-28T06:24:55.182Z,-3.7
2019-01-28T06:25:44.925Z,-3.7
2019-01-28T06:26:35.299Z,-3.7
2019-01-28T06:27:25.520Z,-3.6
2019-01-28T06:28:15.628Z,-3.6
2019-01-28T06:29:05.709Z,-3.6
2019-01-28T06:29:54.692Z,-3.6
2019-01-28T06:30:45.340Z,-3.6
2019-01-28T06:31:35.639Z,-3.6
2019-01-28T06:32:40.374Z,-3.6
2019-01-28T06:33:15.489Z,-3.5
2019-01-28T06:34:06.066Z,-3.5
2019-01-28T07:06:28.755Z,-1.9
2019-01-28T07:07:18.815Z,-1.8
2019-01-28T07:08:08.889Z,-1.8
2019-01-28T07:08:58.931Z,-1.8
2019-01-28T07:09:48.421Z,-1.7
2019-01-28T07:10:38.758Z,-1.6
2019-01-28T07:11:29.087Z,-1.5
2019-01-28T07:12:19.138Z,-1.4
2019-01-28T07:13:08.913Z,-1.4
2019-01-28T07:13:59.259Z,-1.3
2019-01-28T07:14:48.776Z,-1.3
2019-01-28T07:15:39.378Z,-1.3
2019-01-28T07:16:29.439Z,-1.2
2019-01-28T07:17:19.520Z,-1.1
2019-01-28T07:18:09.537Z,-1
2019-01-28T07:18:59.590Z,-1
2019-01-28T07:20:39.703Z,-0.9
2019-01-28T07:21:29.505Z,-0.8
2019-01-28T07:22:19.815Z,-0.8
2019-01-28T07:23:09.603Z,-0.6
2019-01-28T07:23:59.929Z,-0.6
2019-01-28T07:24:49.993Z,-0.4
2019-01-28T07:25:40.082Z,-0.4
2019-01-28T07:26:30.099Z,-0.3
2019-01-28T07:27:19.890Z,-0.2
2019-01-28T07:28:09.946Z,-0.1
2019-01-28T07:28:59.807Z,0
2019-01-28T07:29:49.560Z,0.1
2019-01-28T07:30:40.373Z,0.3
2019-01-28T07:31:30.440Z,0.4
2019-01-28T07:32:20.512Z,0.5
2019-01-28T07:33:10.262Z,0.6
2019-01-28T07:34:00.332Z,0.8
2019-01-28T07:34:50.177Z,0.9
2019-01-28T07:35:40.729Z,1.1
2019-01-28T07:36:30.777Z,1.3
2019-01-28T07:37:20.549Z,1.5
2019-01-28T07:38:10.619Z,1.7
2019-01-28T07:39:00.662Z,1.9
2019-01-28T07:39:51.004Z,2.2
2019-01-28T07:40:40.509Z,2.4
2019-01-28T07:41:30.829Z,2.6
2019-01-28T07:42:20.879Z,2.9
2019-01-28T07:43:11.226Z,3.1
2019-01-28T07:44:00.726Z,3.3
2019-01-28T07:44:51.062Z,3.5
2019-01-28T07:45:47.853Z,3.8
2019-01-28T07:46:31.464Z,4
2019-01-28T07:47:21.221Z,4.2
2019-01-28T07:48:11.299Z,4.4
2019-01-28T07:49:01.613Z,4.7
2019-01-28T07:49:51.393Z,4.9
2019-01-28T07:50:41.527Z,5.2
2019-01-28T07:51:31.546Z,5.4
2019-01-28T07:52:21.851Z,5.6
2019-01-28T07:53:11.916Z,5.8
2019-01-28T07:54:01.132Z,6
2019-01-28T07:54:52.057Z,6.2
2019-01-28T07:55:42.071Z,6.4
2019-01-28T07:56:31.898Z,6.6
2019-01-28T07:57:22.198Z,6.9
2019-01-28T07:58:11.961Z,7.1
2019-01-28T07:59:02.021Z,7.4
2019-01-28T07:59:51.833Z,7.7
2019-01-28T08:00:42.413Z,8
2019-01-28T08:01:32.491Z,8.3
2019-01-28T08:02:22.243Z,8.6
2019-01-28T08:03:12.303Z,8.9
2019-01-28T08:04:02.640Z,9.3
2019-01-28T08:04:52.690Z,9.6
2019-01-28T08:05:42.814Z,9.9
2019-01-28T08:06:32.803Z,10.2
2019-01-28T08:07:22.584Z,10.5
2019-01-28T08:08:12.370Z,10.8
2019-01-28T08:09:02.962Z,11.1
2019-01-28T08:09:52.740Z,11.4
2019-01-28T08:10:43.140Z,11.7
2019-01-28T08:11:32.872Z,11.9
2019-01-28T08:12:23.192Z,12.2
2019-01-28T08:13:13.015Z,12.4
2019-01-28T08:14:03.342Z,12.8
2019-01-28T08:14:53.364Z,13
2019-01-28T08:15:43.147Z,13.3
2019-01-28T08:16:33.532Z,13.4
2019-01-28T08:17:23.542Z,13.6
2019-01-28T08:18:13.679Z,13.8
2019-01-28T08:19:03.375Z,13.8
2019-01-28T08:19:53.484Z,13.9
2019-01-28T08:20:43.761Z,13.9
2019-01-28T08:21:33.818Z,14
2019-01-28T08:22:23.871Z,13.9
2019-01-28T08:23:13.950Z,13.9
2019-01-28T08:24:04.044Z,13.9
2019-01-28T08:24:54.061Z,13.9
2019-01-28T08:25:44.096Z,13.9
2019-01-28T08:26:34.164Z,13.9
2019-01-28T08:27:23.924Z,14
2019-01-28T08:28:13.994Z,14.1
2019-01-28T08:29:04.076Z,14.1
2019-01-28T08:29:54.391Z,14.1
2019-01-28T08:30:44.166Z,14.2
2019-01-28T08:31:34.541Z,14.2
2019-01-28T08:32:24.554Z,14.3
2019-01-28T08:33:14.617Z,14.2
2019-01-28T08:34:04.386Z,14.3
2019-01-28T08:34:54.463Z,14.2
2019-01-28T08:35:44.777Z,14.2
2019-01-28T08:36:34.831Z,14.1
2019-01-28T08:37:24.620Z,14.1
2019-01-28T08:38:14.661Z,14.1
2019-01-28T08:39:04.728Z,14.1
2019-01-28T08:39:56.450Z,14.2
2019-01-28T08:40:45.122Z,14.3
2019-01-28T08:41:34.906Z,14.3
2019-01-28T08:42:24.678Z,14.3
2019-01-28T08:43:17.142Z,14.3
2019-01-28T08:44:05.343Z,14.3
2019-01-28T08:44:55.393Z,14.4
2019-01-28T08:45:47.136Z,14.4
2019-01-28T08:46:35.228Z,14.4
2019-01-28T08:47:25.562Z,14.4
2019-01-28T08:48:20.782Z,14.5
2019-01-28T08:49:05.411Z,14.5
2019-01-28T08:49:55.463Z,14.6
2019-01-28T08:50:45.800Z,14.6
2019-01-28T08:51:35.870Z,14.7
2019-01-28T08:52:25.904Z,14.8
2019-01-28T08:53:15.950Z,14.8
2019-01-28T08:54:05.730Z,14.9
2019-01-28T08:54:56.069Z,15
2019-01-28T08:55:46.134Z,15.1
2019-01-28T08:56:36.187Z,15.3
2019-01-28T08:57:25.959Z,15.4
2019-01-28T08:58:16.299Z,15.5
2019-01-28T08:59:06.349Z,15.6
2019-01-28T08:59:56.404Z,15.8
2019-01-28T09:00:46.467Z,15.9
2019-01-28T09:01:36.309Z,16.1
2019-01-28T09:02:26.299Z,16.2
2019-01-28T09:03:16.660Z,16.3
2019-01-28T09:04:06.690Z,16.5
2019-01-28T09:04:56.746Z,16.8
2019-01-28T09:05:46.804Z,16.9
2019-01-28T09:06:36.576Z,17.2
2019-01-28T09:07:26.648Z,17.4
2019-01-28T09:08:16.419Z,17.6
2019-01-28T09:09:07.026Z,17.8
2019-01-28T09:09:57.086Z,18.1
2019-01-28T09:10:46.587Z,18.5
2019-01-28T09:11:36.930Z,18.8
2019-01-28T09:12:27.287Z,19.1
2019-01-28T09:13:16.769Z,19.5
2019-01-28T09:14:06.811Z,19.8
2019-01-28T09:14:57.139Z,20.2
2019-01-28T09:15:47.003Z,20.4
2019-01-28T09:16:37.249Z,20.7
2019-01-28T09:17:27.590Z,20.9
2019-01-28T09:18:17.646Z,21.3
2019-01-28T09:19:07.427Z,21.6
2019-01-28T09:19:59.519Z,21.9
2019-01-28T09:20:47.820Z,22.2
2019-01-28T09:21:37.879Z,22.5
2019-01-28T09:22:27.934Z,22.9
2019-01-28T09:23:17.993Z,23.3
2019-01-28T09:24:08.046Z,23.7
2019-01-28T09:24:58.098Z,24.2
2019-01-28T09:25:48.149Z,24.8
2019-01-28T09:26:37.662Z,25.4
2019-01-28T09:27:27.775Z,25.9
2019-01-28T09:28:18.043Z,26.4
2019-01-28T09:29:07.825Z,27
2019-01-28T09:29:58.152Z,27.6
2019-01-28T09:30:49.621Z,28.1
2019-01-28T09:31:37.725Z,28.6
2019-01-28T09:32:28.617Z,29.1
2019-01-28T09:33:18.701Z,29.7
2019-01-28T09:34:08.722Z,30.4
2019-01-28T09:34:58.772Z,31.2
2019-01-28T09:35:48.824Z,31.9
2019-01-28T09:36:38.890Z,32.8
2019-01-28T09:37:28.947Z,33.5
2019-01-28T09:38:18.459Z,34.1
2019-01-28T09:39:08.776Z,34.7
2019-01-28T09:39:59.176Z,35.1
2019-01-28T09:40:49.173Z,35.5
2019-01-28T09:41:39.010Z,35.8
2019-01-28T09:42:29.285Z,36.2
2019-01-28T09:43:19.066Z,36.6
2019-01-28T09:44:09.401Z,36.9
2019-01-28T09:44:59.172Z,37.4
2019-01-28T09:45:49.520Z,37.9
2019-01-28T09:46:39.565Z,38.5
2019-01-28T09:47:29.395Z,39.1
2019-01-28T09:48:19.417Z,39.9
2019-01-28T09:49:09.745Z,40.8
2019-01-28T09:49:59.792Z,41.6
2019-01-28T09:50:49.845Z,42.4
2019-01-28T09:51:39.952Z,43.1
2019-01-28T09:52:29.966Z,43.4
2019-01-28T09:53:20.030Z,43.8
2019-01-28T09:54:10.079Z,44.3
2019-01-28T09:55:00.240Z,44.5
2019-01-28T09:55:50.190Z,44.8
2019-01-28T09:56:40.247Z,45.1
2019-01-28T09:57:30.071Z,45.4
2019-01-28T09:58:20.359Z,45.5
2019-01-28T09:59:10.422Z,45.5
2019-01-28T10:00:00.491Z,45.6
2019-01-28T10:00:50.609Z,45.8
2019-01-28T10:01:40.317Z,46.1
2019-01-28T10:02:30.380Z,46.3
2019-01-28T10:03:20.719Z,46.5
2019-01-28T10:04:10.482Z,46.6
2019-01-28T10:05:00.731Z,46.8
2019-01-28T10:07:28.313Z,47.9
2019-01-28T10:08:18.651Z,48.6
2019-01-28T10:09:12.639Z,49.1
2019-01-28T10:09:58.466Z,49.8
2019-01-28T10:10:48.819Z,50.4
2019-01-28T10:11:38.909Z,50.9
2019-01-28T10:12:28.911Z,51.4
2019-01-28T10:13:18.696Z,51.8
2019-01-28T10:14:09.035Z,52.1
2019-01-28T10:14:59.081Z,52.4
2019-01-28T10:15:48.881Z,52.8
2019-01-28T10:16:39.201Z,53.1
2019-01-28T10:17:29.261Z,53.2
2019-01-28T10:18:19.060Z,53.3
2019-01-28T10:19:09.371Z,53.4
2019-01-28T10:19:59.452Z,53.5
2019-01-28T10:20:48.686Z,53.8
2019-01-28T10:21:39.600Z,54.2
2019-01-28T10:22:29.605Z,54.6
2019-01-28T10:23:19.678Z,55.1
2019-01-28T10:24:09.729Z,55.4
2019-01-28T10:24:59.775Z,55.8
2019-01-28T10:25:49.290Z,56.3
2019-01-28T10:26:39.615Z,56.6
2019-01-28T10:27:29.662Z,57
2019-01-28T10:28:20.010Z,57.6
2019-01-28T10:29:09.790Z,58.3
2019-01-28T10:29:59.882Z,58.7
2019-01-28T10:30:49.907Z,59.2
2019-01-28T10:31:40.229Z,59.4
2019-01-28T10:32:37.880Z,59.6
2019-01-28T10:33:20.358Z,60
2019-01-28T10:34:10.434Z,60.3
2019-01-28T10:35:00.199Z,60.4
2019-01-28T10:35:49.972Z,60.6
2019-01-28T10:36:40.309Z,60.9
2019-01-28T10:37:30.637Z,61.1
2019-01-28T10:38:20.694Z,61.3
2019-01-28T10:39:10.195Z,61.2
2019-01-28T10:40:00.819Z,61.1
2019-01-28T10:40:50.324Z,61.1
2019-01-28T10:41:40.369Z,61.1
2019-01-28T10:42:30.974Z,61.3
2019-01-28T10:43:20.767Z,61.4
2019-01-28T10:44:12.786Z,61.5
2019-01-28T10:45:01.267Z,61.4
2019-01-28T10:45:51.219Z,61.3
2019-01-28T10:46:41.066Z,61.1
2019-01-28T10:47:31.366Z,60.9
2019-01-28T10:48:21.373Z,61
2019-01-28T10:49:10.899Z,61.1
2019-01-28T10:50:01.297Z,61.4
2019-01-28T10:50:51.561Z,61.8
2019-01-28T10:51:41.046Z,62.1
2019-01-28T10:52:31.404Z,62.3
2019-01-28T10:53:21.436Z,62.5
2019-01-28T10:54:11.503Z,62.6
2019-01-28T10:55:01.941Z,62.6
2019-01-28T10:55:51.887Z,62.8
2019-01-28T10:56:41.958Z,63.2
2019-01-28T10:57:32.006Z,63.6
2019-01-28T10:58:21.514Z,64
2019-01-28T10:59:11.890Z,64.4
2019-01-28T11:00:02.078Z,64.7
2019-01-28T11:00:52.253Z,65.1
2019-01-28T11:01:42.343Z,65.5
2019-01-28T11:02:32.063Z,65.9
2019-01-28T11:03:22.398Z,66.3
2019-01-28T11:04:12.463Z,66.5
2019-01-28T11:05:02.094Z,66.4
2019-01-28T11:05:51.762Z,66.2
2019-01-28T11:06:42.363Z,65.9
2019-01-28T11:07:32.696Z,65.8
2019-01-28T11:08:22.198Z,65.6
2019-01-28T11:09:12.947Z,65.4
2019-01-28T11:10:02.904Z,65.2
2019-01-28T11:10:52.842Z,65.1
2019-01-28T11:11:45.145Z,65.1
2019-01-28T11:12:33.459Z,64.9
2019-01-28T11:13:23.254Z,64.8
2019-01-28T11:14:12.989Z,64.7
2019-01-28T11:15:02.978Z,64.4
2019-01-28T11:15:52.879Z,64.1
2019-01-28T11:16:43.535Z,63.9
2019-01-28T11:17:33.606Z,63.7
2019-01-28T11:18:23.584Z,63.3
2019-01-28T11:19:12.877Z,62.9
2019-01-28T11:20:04.171Z,62.6
2019-01-28T11:20:54.064Z,62.3
2019-01-28T11:21:44.149Z,62.1
2019-01-28T11:22:33.139Z,62.1
2019-01-28T11:23:24.269Z,62
2019-01-28T11:24:14.141Z,61.9
2019-01-28T11:25:04.585Z,61.6
2019-01-28T11:25:54.284Z,61
2019-01-28T11:26:44.546Z,60.4
2019-01-28T11:27:34.652Z,60
2019-01-28T11:28:24.353Z,59.5
2019-01-28T11:29:14.389Z,58.9
2019-01-28T11:30:04.174Z,58.5
2019-01-28T11:30:54.761Z,58.1
2019-01-28T11:31:44.162Z,57.8
2019-01-28T11:32:34.471Z,57.3
2019-01-28T11:33:24.019Z,56.7
2019-01-28T11:34:14.650Z,56.3
2019-01-28T11:35:04.995Z,55.6
2019-01-28T11:35:54.898Z,55.1
2019-01-28T11:36:44.814Z,54.4
2019-01-28T11:37:35.343Z,53.9
2019-01-28T11:38:24.723Z,53.3
2019-01-28T11:39:14.811Z,52.6
2019-01-28T11:40:04.791Z,52.1
2019-01-28T11:40:55.691Z,51.4
2019-01-28T11:41:45.068Z,50.9
2019-01-28T11:42:35.152Z,50.3
2019-01-28T11:43:25.112Z,49.7
2019-01-28T11:44:15.032Z,49.1
2019-01-28T11:45:05.726Z,48.4
2019-01-28T11:45:55.211Z,47.9
2019-01-28T11:46:45.592Z,47.4
2019-01-28T11:47:35.558Z,46.8
2019-01-28T11:48:25.493Z,46.1